createdAt,value
2018-04-16T10:05:02.629Z,50.86
2018-04-16T10:06:02.687Z,51.64
2018-04-16T10:07:55.916Z,51.54
2018-04-16T10:08:55.875Z,51.64
2018-04-16T10:10:49.304Z,51.25
2018-04-16T10:11:49.180Z,51.44
2018-04-16T10:13:42.472Z,50.50
2018-04-16T10:14:42.641Z,50.79
2018-04-16T10:16:35.694Z,50.70
2018-04-16T10:17:35.984Z,50.76
2018-04-16T10:19:29.246Z,50.40
2018-04-16T10:20:29.182Z,50.50
2018-04-16T10:22:22.326Z,50.60
2018-04-16T10:23:22.497Z,50.89
2018-04-16T10:25:15.596Z,50.50
2018-04-16T10:26:15.566Z,51.25
2018-04-16T10:28:08.885Z,51.64
2018-04-16T10:29:08.880Z,51.64
2018-04-16T10:31:02.118Z,50.96
2018-04-16T10:32:02.357Z,51.44
2018-04-16T10:33:55.477Z,51.35
2018-04-16T10:34:55.649Z,51.54
2018-04-16T10:36:48.665Z,51.64
2018-04-16T10:37:48.745Z,51.44
2018-04-16T10:39:42.048Z,51.44
2018-04-16T10:40:42.014Z,51.44
2018-04-16T10:42:35.369Z,51.64
2018-04-16T10:43:35.289Z,51.81
2018-04-16T10:45:28.543Z,51.93
2018-04-16T10:46:28.726Z,51.93
2018-04-16T10:48:21.871Z,52.12
2018-04-16T10:49:21.839Z,52.09
2018-04-16T10:51:15.173Z,51.73
2018-04-16T10:52:15.307Z,52.12
2018-04-16T10:54:08.483Z,52.09
2018-04-16T10:55:08.639Z,52.00
2018-04-16T10:57:01.880Z,52.29
2018-04-16T10:58:02.023Z,52.09
2018-04-16T10:59:56.094Z,53.09
2018-04-16T11:00:56.196Z,52.61
2018-04-16T11:02:50.317Z,52.58
2018-04-16T11:03:51.022Z,53.16
2018-04-16T11:05:44.615Z,53.25
2018-04-16T11:06:44.812Z,53.93
2018-04-16T11:08:39.010Z,53.16
2018-04-16T11:09:39.146Z,52.48
2018-04-16T11:11:33.156Z,52.77
2018-04-16T11:12:33.435Z,53.16
2018-04-16T11:14:27.495Z,53.35
2018-04-16T11:15:27.777Z,53.25
2018-04-16T11:17:21.702Z,53.06
2018-04-16T11:18:21.956Z,52.77
2018-04-16T11:20:16.098Z,52.67
2018-04-16T11:21:16.219Z,52.48
2018-04-16T11:23:10.367Z,52.48
2018-04-16T11:24:10.551Z,52.67
2018-04-16T11:26:04.809Z,52.48
2018-04-16T11:27:04.793Z,52.48
2018-04-16T11:28:58.964Z,53.06
2018-04-16T11:29:59.079Z,53.16
2018-04-16T11:31:53.161Z,52.67
2018-04-16T11:32:53.409Z,53.06
2018-04-16T11:34:47.589Z,53.16
2018-04-16T11:35:47.715Z,53.64
2018-04-16T11:37:41.821Z,53.06
2018-04-16T11:38:41.981Z,53.33
2018-04-16T11:40:36.122Z,53.25
2018-04-16T11:41:36.271Z,53.16
2018-04-16T11:43:30.641Z,53.71
2018-04-16T11:44:30.574Z,53.64
2018-04-16T11:46:35.840Z,53.42
2018-04-16T11:47:36.107Z,53.52
2018-04-16T11:49:30.108Z,53.52
2018-04-16T11:50:30.102Z,53.42
2018-04-16T11:52:24.344Z,53.61
2018-04-16T11:53:24.620Z,53.42
2018-04-16T11:55:18.948Z,53.03
2018-04-16T11:56:18.930Z,53.61
2018-04-16T11:58:13.069Z,53.42
2018-04-16T11:59:13.063Z,53.71
2018-04-16T12:01:08.095Z,53.42
2018-04-16T12:02:07.308Z,53.81
2018-04-16T12:04:01.829Z,53.81
2018-04-16T12:05:01.757Z,53.61
2018-04-16T12:06:56.032Z,53.71
2018-04-16T12:07:55.907Z,56.03
2018-04-16T12:09:49.185Z,54.77
2018-04-16T12:10:49.370Z,54.13
2018-04-16T12:12:43.475Z,52.99
2018-04-16T12:13:43.660Z,53.28
2018-04-16T12:15:37.800Z,52.70
2018-04-16T12:16:38.000Z,52.31
2018-04-16T12:18:32.055Z,52.02
2018-04-16T12:19:33.179Z,52.02
2018-04-16T12:21:26.331Z,52.02
2018-04-16T12:22:26.576Z,51.73
2018-04-16T12:24:20.813Z,51.93
2018-04-16T12:25:19.824Z,51.54
2018-04-16T12:27:13.853Z,51.66
2018-04-16T12:28:13.961Z,51.76
2018-04-16T12:30:08.415Z,51.56
2018-04-16T12:31:08.402Z,50.92
2018-04-16T12:33:02.550Z,50.72
2018-04-16T12:34:02.582Z,50.14
2018-04-16T12:35:56.976Z,50.14
2018-04-16T12:36:56.978Z,49.95
2018-04-16T12:38:51.081Z,51.10
2018-04-16T12:39:51.268Z,50.52
2018-04-16T12:41:45.375Z,50.52
2018-04-16T12:42:45.572Z,50.52
2018-04-16T12:44:39.678Z,50.43
2018-04-16T12:45:39.861Z,50.82
2018-04-16T12:47:33.897Z,51.30
2018-04-16T12:48:34.108Z,51.20
2018-04-16T12:50:28.272Z,51.20
2018-04-16T12:51:28.425Z,51.30
2018-04-16T12:53:22.647Z,51.59
2018-04-16T12:54:22.734Z,51.40
2018-04-16T12:56:16.181Z,51.78
2018-04-16T12:57:15.961Z,52.46
2018-04-16T12:59:12.108Z,51.10
2018-04-16T13:00:10.287Z,51.40
2018-04-16T13:02:04.334Z,51.40
2018-04-16T13:03:04.604Z,51.40
2018-04-16T13:04:58.740Z,51.40
2018-04-16T13:05:58.843Z,51.30
2018-04-16T13:07:53.027Z,51.88
2018-04-16T13:08:53.152Z,51.50
2018-04-16T13:10:47.462Z,51.30
2018-04-16T13:11:47.448Z,51.40
2018-04-16T13:13:41.618Z,52.10
2018-04-16T13:14:41.834Z,51.52
2018-04-16T13:16:35.903Z,51.62
2018-04-16T13:17:36.025Z,51.50
2018-04-16T13:21:03.091Z,52.29
2018-04-16T13:22:03.298Z,51.72
2018-04-16T13:23:57.385Z,50.65
2018-04-16T13:24:57.556Z,50.94
2018-04-16T13:26:51.625Z,51.04
2018-04-16T13:27:51.897Z,51.62
2018-04-16T13:29:46.031Z,51.68
2018-04-16T13:30:46.157Z,51.40
2018-04-16T13:32:40.247Z,51.68
2018-04-16T13:33:41.371Z,51.78
2018-04-16T13:35:34.752Z,50.40
2018-04-16T13:37:48.850Z,51.20
2018-04-16T13:38:48.987Z,50.52
2018-04-16T13:40:43.157Z,50.43
2018-04-16T13:41:43.287Z,50.14
2018-04-16T13:43:37.382Z,50.24
2018-04-16T13:44:37.656Z,50.33
2018-04-16T13:46:31.758Z,50.33
2018-04-16T13:47:31.958Z,50.14
2018-04-16T13:49:26.036Z,50.45
2018-04-16T13:50:26.174Z,50.07
2018-04-16T13:52:20.315Z,52.73
2018-04-16T13:53:20.436Z,49.95
2018-04-16T13:55:14.657Z,49.99
2018-04-16T13:56:14.718Z,46.09
2018-04-16T13:58:08.883Z,49.39
2018-04-16T13:59:09.098Z,50.24
2018-04-16T14:01:03.196Z,50.89
2018-04-16T14:02:03.358Z,51.95
2018-04-16T14:03:57.437Z,51.47
2018-04-16T14:04:58.187Z,52.31
2018-04-16T14:06:51.796Z,52.02
2018-04-16T14:07:51.904Z,51.44
2018-04-16T14:09:45.106Z,52.02
2018-04-16T14:10:45.196Z,52.02
2018-04-16T14:12:39.580Z,51.73
2018-04-16T14:13:40.135Z,51.64
2018-04-16T14:15:38.443Z,52.22
2018-04-16T14:16:33.769Z,52.22
2018-04-16T14:18:27.917Z,53.09
2018-04-16T14:19:28.121Z,51.73
2018-04-16T14:21:21.214Z,51.68
2018-04-16T14:22:21.332Z,50.40
2018-04-16T14:24:15.578Z,53.16
2018-04-16T14:25:15.705Z,53.25
2018-04-16T14:27:09.849Z,53.33
2018-04-16T14:28:09.990Z,53.61
2018-04-16T14:30:04.074Z,54.13
2018-04-16T14:31:04.289Z,53.42
2018-04-16T14:32:58.331Z,54.10
2018-04-16T14:33:58.569Z,54.39
2018-04-16T14:35:52.934Z,53.91
2018-04-16T14:36:52.856Z,54.29
2018-04-16T14:38:47.110Z,53.33
2018-04-16T14:39:47.134Z,53.61
2018-04-16T14:41:41.255Z,53.33
2018-04-16T14:42:41.399Z,53.13
2018-04-16T14:44:35.562Z,53.81
2018-04-16T14:45:35.601Z,53.52
2018-04-16T14:47:29.764Z,54.29
2018-04-16T14:48:29.963Z,54.07
2018-04-16T14:50:24.151Z,54.46
2018-04-16T14:51:24.291Z,54.36
2018-04-16T14:53:18.350Z,54.07
2018-04-16T14:54:18.563Z,53.97
2018-04-16T14:56:12.717Z,54.55
2018-04-16T14:57:12.912Z,54.17
2018-04-16T14:58:12.892Z,54.75
2018-04-16T14:59:12.965Z,54.75
2018-04-16T15:00:12.947Z,54.36
2018-04-16T15:01:12.831Z,54.07
2018-04-16T15:02:13.073Z,54.55
2018-04-16T15:03:13.130Z,54.53
2018-04-16T15:04:13.062Z,54.72
2018-04-16T15:05:13.111Z,54.33
2018-04-16T15:06:14.169Z,55.33
2018-04-16T15:07:13.230Z,54.46
2018-04-16T15:08:13.334Z,54.55
2018-04-16T15:09:13.346Z,54.36
2018-04-16T15:10:13.318Z,54.29
2018-04-16T15:11:13.214Z,53.88
2018-04-16T15:12:13.435Z,54.17
2018-04-16T15:13:13.449Z,53.97
2018-04-16T15:14:13.493Z,53.59
2018-04-16T15:15:13.522Z,53.69
2018-04-16T15:16:13.380Z,56.00
2018-04-16T15:17:13.636Z,54.17
2018-04-16T15:18:13.662Z,53.49
2018-04-16T15:19:13.588Z,53.78
2018-04-16T15:20:13.730Z,53.49
2018-04-16T15:21:13.581Z,53.81
2018-04-16T15:22:13.835Z,53.91
2018-04-16T15:23:13.826Z,53.33
2018-04-16T15:24:13.831Z,53.81
2018-04-16T15:25:13.842Z,53.81
2018-04-16T15:26:13.914Z,53.71
2018-04-16T15:27:13.952Z,52.94
2018-04-16T15:28:14.798Z,53.13
2018-04-16T15:29:13.947Z,54.00
2018-04-16T15:30:14.132Z,52.48
2018-04-16T15:31:13.934Z,53.16
2018-04-16T15:32:14.145Z,52.39
2018-04-16T15:33:14.105Z,53.16
2018-04-16T15:34:14.180Z,52.19
2018-04-16T15:35:14.288Z,53.16
2018-04-16T15:36:14.089Z,52.00
2018-04-16T15:37:14.263Z,51.90
2018-04-16T15:38:14.324Z,51.61
2018-04-16T15:39:20.878Z,53.06
2018-04-16T15:40:14.381Z,53.16
2018-04-16T15:41:14.275Z,51.51
2018-04-16T15:42:14.437Z,52.19
2018-04-16T15:43:14.481Z,54.41
2018-04-16T15:44:14.597Z,51.90
2018-04-16T15:45:14.582Z,52.22
2018-04-16T15:46:14.465Z,52.29
2018-04-16T15:49:05.278Z,51.64
2018-04-16T15:50:05.297Z,51.54
2018-04-16T15:51:05.323Z,52.02
2018-04-16T15:52:05.357Z,51.83
2018-04-16T15:53:05.390Z,51.64
2018-04-16T15:54:05.426Z,51.54
2018-04-16T15:55:05.463Z,51.64
2018-04-16T15:56:05.511Z,51.42
2018-04-16T15:57:05.535Z,51.54
2018-04-16T15:58:05.575Z,51.90
2018-04-16T15:59:05.608Z,52.00
2018-04-16T16:00:05.643Z,52.45
2018-04-16T16:01:05.687Z,53.23
2018-04-16T16:02:05.720Z,53.13
2018-04-16T16:03:05.757Z,52.75
2018-04-16T16:04:05.794Z,53.03
2018-04-16T16:05:05.846Z,52.45
2018-04-16T16:06:05.868Z,52.65
2018-04-16T16:07:05.905Z,53.25
2018-04-16T16:08:05.942Z,52.94
2018-04-16T16:09:05.983Z,53.16
2018-04-16T16:10:06.017Z,52.75
2018-04-16T16:11:06.054Z,53.23
2018-04-16T16:12:06.091Z,52.55
2018-04-16T16:13:06.131Z,52.65
2018-04-16T16:14:06.170Z,53.23
2018-04-16T16:15:06.266Z,52.94
2018-04-16T16:16:06.243Z,53.23
2018-04-16T16:17:06.282Z,53.13
2018-04-16T16:18:06.319Z,53.03
2018-04-16T16:19:06.358Z,53.61
2018-04-16T16:20:06.396Z,53.13
2018-04-16T16:21:06.437Z,53.03
2018-04-16T16:22:06.472Z,52.72
2018-04-16T16:23:06.515Z,53.49
2018-04-16T16:24:06.557Z,53.11
2018-04-16T16:25:06.588Z,53.11
2018-04-16T16:26:06.627Z,53.11
2018-04-16T16:27:06.670Z,53.49
2018-04-16T16:28:06.704Z,53.78
2018-04-16T16:29:06.747Z,53.59
2018-04-16T16:30:06.782Z,53.39
2018-04-16T16:31:06.821Z,53.39
2018-04-16T16:32:06.861Z,53.39
2018-04-16T16:33:06.896Z,53.78
2018-04-16T16:34:06.937Z,52.91
2018-04-16T16:35:06.974Z,53.39
2018-04-16T16:36:07.034Z,53.30
2018-04-16T16:37:07.052Z,53.37
2018-04-16T16:38:07.090Z,53.47
2018-04-16T16:39:07.130Z,53.66
2018-04-16T16:40:07.169Z,53.66
2018-04-16T16:41:07.207Z,53.85
2018-04-16T16:42:07.245Z,53.47
2018-04-16T16:43:07.285Z,53.47
2018-04-16T16:44:07.324Z,53.47
2018-04-16T16:45:07.361Z,54.05
2018-04-16T16:46:07.399Z,53.95
2018-04-16T16:47:07.439Z,53.95
2018-04-16T16:48:07.477Z,54.05
2018-04-16T16:49:07.518Z,54.05
2018-04-16T16:50:07.554Z,53.95
2018-04-16T16:51:07.593Z,54.24
2018-04-16T16:52:07.634Z,54.14
2018-04-16T16:53:07.670Z,54.33
2018-04-16T16:54:07.765Z,53.95
2018-04-16T16:55:07.748Z,54.33
2018-04-16T16:56:07.785Z,54.43
2018-04-16T16:57:07.823Z,54.72
2018-04-16T16:58:07.871Z,54.31
2018-04-16T16:59:07.901Z,54.50
2018-04-16T17:00:07.938Z,54.50
2018-04-16T17:01:07.980Z,54.31
2018-04-16T17:02:08.023Z,54.31
2018-04-16T17:03:08.053Z,54.11
2018-04-16T17:04:08.091Z,54.60
2018-04-16T17:05:08.138Z,54.50
2018-04-16T17:06:08.167Z,54.50
2018-04-16T17:07:08.206Z,54.88
2018-04-16T17:08:08.243Z,54.50
2018-04-16T17:09:08.283Z,54.69
2018-04-16T17:10:08.321Z,54.69
2018-04-16T17:11:08.358Z,54.60
2018-04-16T17:12:08.401Z,54.79
2018-04-16T17:13:08.435Z,54.88
2018-04-16T17:14:08.474Z,54.69
2018-04-16T17:15:08.514Z,55.36
2018-04-16T17:16:08.552Z,54.60
2018-04-16T17:17:08.586Z,55.18
2018-04-16T17:18:08.624Z,55.18
2018-04-16T17:19:08.665Z,55.18
2018-04-16T17:20:08.748Z,55.44
2018-04-16T17:21:08.739Z,54.88
2018-04-16T17:22:08.781Z,54.98
2018-04-16T17:23:08.813Z,55.05
2018-04-16T17:24:08.855Z,55.24
2018-04-16T17:25:08.890Z,54.96
2018-04-16T17:26:08.934Z,55.24
2018-04-16T17:27:08.966Z,54.86
2018-04-16T17:28:09.008Z,55.15
2018-04-16T17:29:09.043Z,55.24
2018-04-16T17:30:09.084Z,55.44
2018-04-16T17:31:09.117Z,55.24
2018-04-16T17:32:09.153Z,55.34
2018-04-16T17:33:09.191Z,55.05
2018-04-16T17:34:09.235Z,55.05
2018-04-16T17:35:09.269Z,55.54
2018-04-16T17:36:09.308Z,55.15
2018-04-16T17:37:09.346Z,55.24
2018-04-16T17:38:09.383Z,55.34
2018-04-16T17:39:09.421Z,55.24
2018-04-16T17:40:09.456Z,55.44
2018-04-16T17:41:09.496Z,55.54
2018-04-16T17:42:09.533Z,55.73
2018-04-16T17:43:09.569Z,55.44
2018-04-16T17:44:09.611Z,55.92
2018-04-16T17:45:09.650Z,55.73
2018-04-16T17:46:09.684Z,55.73
2018-04-16T17:47:09.720Z,55.73
2018-04-16T17:48:09.759Z,55.73
2018-04-16T17:49:09.797Z,55.92
2018-04-16T17:50:09.831Z,55.92
2018-04-16T17:51:09.870Z,55.41
2018-04-16T17:52:09.907Z,55.51
2018-04-16T17:53:09.945Z,55.54
2018-04-16T17:54:09.983Z,56.09
2018-04-16T17:55:10.059Z,55.89
2018-04-16T17:56:10.060Z,55.70
2018-04-16T17:57:10.095Z,56.18
2018-04-16T17:58:10.137Z,56.09
2018-04-16T17:59:10.177Z,56.18
2018-04-16T18:00:10.209Z,56.18
2018-04-16T18:01:10.247Z,55.79
2018-04-16T18:02:10.285Z,55.99
2018-04-16T18:03:10.328Z,55.99
2018-04-16T18:04:10.363Z,55.89
2018-04-16T18:05:10.415Z,55.99
2018-04-16T18:06:10.435Z,56.09
2018-04-16T18:07:10.470Z,55.89
2018-04-16T18:08:10.509Z,56.09
2018-04-16T18:09:10.546Z,56.09
2018-04-16T18:10:10.587Z,55.79
2018-04-16T18:11:10.621Z,55.89
2018-04-16T18:12:10.658Z,55.99
2018-04-16T18:13:10.695Z,56.09
2018-04-16T18:14:10.737Z,55.89
2018-04-16T18:15:10.769Z,56.09
2018-04-16T18:16:10.808Z,56.09
2018-04-16T18:17:10.846Z,55.99
2018-04-16T18:18:10.885Z,56.09
2018-04-16T18:19:10.928Z,55.79
2018-04-16T18:20:10.959Z,55.89
2018-04-16T18:21:11.004Z,55.57
2018-04-16T18:22:11.038Z,56.05
2018-04-16T18:23:11.071Z,55.87
2018-04-16T18:24:11.108Z,56.05
2018-04-16T18:25:11.145Z,56.05
2018-04-16T19:05:58.646Z,56.54
2018-04-16T19:06:58.644Z,56.35
2018-04-16T19:07:58.678Z,56.63
2018-04-16T19:08:58.716Z,56.63
2018-04-16T19:09:58.756Z,56.73
2018-04-16T19:10:58.790Z,56.54
2018-04-16T19:11:58.826Z,56.54
2018-04-16T19:12:58.863Z,56.54
2018-04-16T19:13:58.897Z,56.63
2018-04-16T19:14:58.934Z,56.60
2018-04-16T19:15:58.981Z,56.73
2018-04-16T19:16:59.007Z,56.63
2018-04-16T19:17:59.048Z,56.60
2018-04-16T19:18:59.084Z,56.54
2018-04-16T19:19:59.120Z,56.44
2018-04-16T19:20:59.159Z,56.44
2018-04-16T19:21:59.196Z,56.51
2018-04-16T19:22:59.230Z,56.44
2018-04-16T19:23:59.281Z,56.73
2018-04-16T19:24:59.308Z,56.41
2018-04-16T19:25:59.340Z,56.35
2018-04-16T19:26:59.375Z,56.15
2018-04-16T19:27:59.414Z,56.82
2018-04-16T19:28:59.451Z,56.44
2018-04-16T19:29:59.488Z,56.35
2018-04-16T19:30:59.526Z,56.73
2018-04-16T19:31:59.561Z,56.70
2018-04-16T19:32:59.601Z,56.60
2018-04-16T19:33:59.643Z,56.73
2018-04-16T19:34:59.685Z,56.73
2018-04-16T19:35:59.711Z,56.60
2018-04-16T19:36:59.747Z,56.32
2018-04-16T19:37:59.785Z,56.63
2018-04-16T19:38:59.825Z,56.41
2018-04-16T19:39:59.857Z,56.70
2018-04-16T19:40:59.895Z,56.44
2018-04-16T19:41:59.933Z,56.41
2018-04-16T19:43:00.023Z,56.73
2018-04-16T19:44:00.007Z,56.44
2018-04-16T19:45:00.043Z,56.60
2018-04-16T19:46:00.081Z,56.63
2018-04-16T19:47:00.123Z,56.60
2018-04-16T19:48:00.154Z,56.51
2018-04-16T19:49:00.207Z,56.51
2018-04-16T19:50:00.230Z,56.70
2018-04-16T19:51:00.268Z,56.60
2018-04-16T19:52:00.304Z,56.70
2018-04-16T19:53:00.343Z,56.70
2018-04-16T19:54:00.395Z,56.60
2018-04-16T19:55:00.416Z,56.41
2018-04-16T19:56:00.451Z,56.51
2018-04-16T19:57:00.492Z,56.51
2018-04-16T19:58:00.532Z,56.51
2018-04-16T19:59:00.564Z,56.51
2018-04-16T20:00:00.604Z,56.51
2018-04-16T20:01:00.638Z,56.60
2018-04-16T20:02:00.677Z,56.32
2018-04-16T20:03:00.713Z,56.41
2018-04-16T20:04:00.752Z,56.41
2018-04-16T20:05:00.785Z,56.22
2018-04-16T20:06:00.824Z,56.32
2018-04-16T20:07:00.860Z,56.32
2018-04-16T20:08:00.897Z,56.41
2018-04-16T20:09:00.938Z,56.32
2018-04-16T20:10:00.995Z,56.32
2018-04-16T20:11:01.009Z,56.41
2018-04-16T20:12:01.047Z,56.32
2018-04-16T20:13:01.085Z,56.22
2018-04-16T20:14:01.123Z,56.22
2018-04-16T20:15:01.164Z,56.41
2018-04-16T20:16:01.193Z,56.41
2018-04-16T20:17:01.233Z,56.32
2018-04-16T20:18:01.270Z,56.51
2018-04-16T20:19:01.311Z,56.32
2018-04-16T20:20:01.346Z,56.32
2018-04-16T20:21:01.382Z,56.41
2018-04-16T20:22:01.418Z,56.41
2018-04-16T20:23:01.464Z,56.51
2018-04-16T20:24:01.489Z,56.32
2018-04-16T20:25:01.530Z,56.41
2018-04-16T20:26:01.569Z,56.12
2018-04-16T20:27:01.603Z,56.41
2018-04-16T20:28:01.643Z,56.41
2018-04-16T20:29:01.676Z,56.41
2018-04-16T20:30:01.716Z,56.51
2018-04-16T20:31:01.750Z,56.22
2018-04-16T20:32:01.789Z,56.41
2018-04-16T20:33:01.823Z,56.22
2018-04-16T20:34:01.860Z,56.41
2018-04-16T20:35:01.898Z,56.60
2018-04-16T20:36:01.936Z,56.41
2018-04-16T20:37:01.971Z,56.51
2018-04-16T20:38:02.016Z,56.60
2018-04-16T20:39:02.044Z,56.51
2018-04-16T20:40:02.090Z,56.60
2018-04-16T20:41:02.119Z,56.41
2018-04-16T20:42:02.156Z,56.51
2018-04-16T20:43:02.197Z,56.51
2018-04-16T20:44:02.228Z,56.41
2018-04-16T20:45:02.267Z,56.51
2018-04-16T20:46:02.304Z,56.41
2018-04-16T20:47:02.342Z,56.70
2018-04-16T20:48:02.383Z,56.51
2018-04-16T20:49:02.414Z,56.51
2018-04-16T20:50:02.454Z,56.60
2018-04-16T20:51:02.488Z,56.51
2018-04-16T20:52:02.528Z,56.51
2018-04-16T20:53:02.563Z,56.41
2018-04-16T20:54:02.599Z,56.51
2018-04-16T20:55:02.640Z,56.51
2018-04-16T20:56:02.673Z,56.51
2018-04-16T20:57:02.711Z,56.60
2018-04-16T20:58:02.751Z,56.51
2018-04-16T20:59:02.788Z,56.51
2018-04-16T21:00:02.827Z,56.51
2018-04-16T21:01:02.862Z,56.70
2018-04-16T21:02:02.911Z,56.70
2018-04-16T21:03:02.934Z,56.51
2018-04-16T21:04:02.971Z,56.51
2018-04-16T21:05:03.005Z,56.60
2018-04-16T21:06:03.045Z,56.51
2018-04-16T21:07:03.088Z,56.60
2018-04-16T21:08:03.118Z,56.60
2018-04-16T21:09:03.155Z,56.29
2018-04-16T21:10:03.194Z,56.60
2018-04-16T21:11:03.242Z,56.60
2018-04-16T21:12:03.265Z,56.48
2018-04-16T21:13:03.302Z,56.51
2018-04-16T21:14:03.340Z,56.51
2018-04-16T21:15:03.377Z,56.51
2018-04-16T21:16:03.416Z,56.32
2018-04-16T21:17:03.453Z,56.48
2018-04-16T21:18:03.489Z,56.60
2018-04-16T21:19:03.531Z,56.51
2018-04-16T21:20:03.562Z,56.51
2018-04-16T21:21:03.602Z,56.51
2018-04-16T21:22:03.638Z,56.51
2018-04-16T21:23:03.675Z,56.48
2018-04-16T21:24:03.710Z,56.41
2018-04-16T21:25:03.752Z,56.48
2018-04-16T21:26:03.791Z,56.48
2018-04-16T21:27:03.822Z,56.58
2018-04-16T21:28:03.863Z,56.48
2018-04-16T21:29:03.896Z,56.58
2018-04-16T21:30:03.935Z,56.48
2018-04-16T21:31:03.972Z,56.48
2018-04-16T21:32:04.007Z,56.48
2018-04-16T21:33:04.045Z,56.51
2018-04-16T21:34:04.083Z,56.38
2018-04-16T21:35:04.119Z,56.58
2018-04-16T21:36:04.159Z,56.67
2018-04-16T21:37:04.194Z,56.48
2018-04-16T21:38:04.232Z,56.48
2018-04-16T21:39:04.268Z,56.48
2018-04-16T21:40:04.304Z,56.70
2018-04-16T21:41:04.341Z,56.48
2018-04-16T21:42:04.380Z,56.38
2018-04-16T21:43:04.417Z,56.48
2018-04-16T21:44:04.457Z,56.48
2018-04-16T21:45:04.494Z,56.38
2018-04-16T21:46:04.528Z,56.48
2018-04-16T21:47:04.563Z,56.38
2018-04-16T21:48:04.599Z,56.48
2018-04-16T21:49:04.641Z,56.38
2018-04-16T21:50:04.674Z,56.58
2018-04-16T21:51:04.712Z,56.67
2018-04-16T21:52:04.749Z,56.48
2018-04-16T21:53:04.787Z,56.58
2018-04-16T21:54:04.823Z,56.58
2018-04-16T21:55:04.860Z,56.58
2018-04-16T21:56:04.895Z,56.58
2018-04-16T21:57:04.933Z,56.67
2018-04-16T21:58:04.973Z,56.67
2018-04-16T21:59:05.008Z,56.48
2018-04-16T22:00:05.043Z,56.38
2018-04-16T22:01:05.085Z,56.58
2018-04-16T22:02:05.117Z,56.38
2018-04-16T22:03:05.195Z,56.29
2018-04-16T22:04:05.192Z,56.48
2018-04-16T22:05:05.235Z,56.38
2018-04-16T22:06:05.267Z,56.48
2018-04-16T22:07:05.304Z,56.38
2018-04-16T22:08:05.343Z,56.38
2018-04-16T22:09:05.377Z,56.77
2018-04-16T22:10:05.415Z,56.67
2018-04-16T22:11:05.451Z,56.20
2018-04-16T22:12:05.490Z,55.90
2018-04-16T22:13:05.525Z,56.67
2018-04-16T22:14:05.569Z,55.90
2018-04-16T22:15:05.600Z,55.81
2018-04-16T22:16:05.637Z,56.67
2018-04-16T22:17:05.680Z,55.90
2018-04-16T22:18:05.710Z,56.58
2018-04-16T22:19:05.747Z,56.58
2018-04-16T22:20:05.784Z,56.00
2018-04-16T22:21:05.874Z,56.67
2018-04-16T22:22:05.858Z,56.10
2018-04-16T22:23:05.898Z,55.81
2018-04-16T22:24:05.932Z,55.90
2018-04-16T22:25:05.975Z,56.38
2018-04-16T22:26:06.006Z,56.87
2018-04-16T22:27:06.045Z,56.38
2018-04-16T22:28:06.088Z,56.29
2018-04-16T22:29:06.117Z,56.58
2018-04-16T22:30:06.163Z,56.38
2018-04-16T22:31:06.193Z,56.38
2018-04-16T22:32:06.228Z,56.67
2018-04-16T22:33:06.268Z,56.00
2018-04-16T22:34:06.307Z,56.29
2018-04-16T22:35:06.348Z,56.00
2018-04-16T22:36:06.380Z,55.90
2018-04-16T22:37:06.415Z,56.58
2018-04-16T22:38:06.457Z,56.29
2018-04-16T22:39:06.494Z,56.29
2018-04-16T22:40:06.533Z,56.48
2018-04-16T22:41:06.561Z,56.67
2018-04-16T22:42:06.602Z,56.00
2018-04-16T22:43:06.640Z,55.81
2018-04-16T22:44:06.677Z,56.29
2018-04-16T22:45:06.713Z,55.90
2018-04-16T22:46:06.747Z,55.90
2018-04-16T22:47:06.784Z,55.90
2018-04-16T22:48:06.825Z,55.81
2018-04-16T22:49:06.858Z,55.81
2018-04-16T22:50:06.894Z,55.90
2018-04-16T22:51:06.937Z,55.81
2018-04-16T22:52:06.968Z,56.58
2018-04-16T22:53:07.007Z,56.77
2018-04-16T22:54:07.042Z,55.71
2018-04-16T22:55:07.082Z,56.10
2018-04-16T22:56:07.117Z,55.90
2018-04-16T22:57:07.154Z,55.71
2018-04-16T22:58:07.223Z,56.00
2018-04-16T22:59:07.228Z,56.00
2018-04-16T23:00:07.264Z,55.90
2018-04-16T23:01:07.307Z,56.00
2018-04-16T23:02:07.342Z,55.90
2018-04-16T23:03:07.377Z,56.00
2018-04-16T23:04:07.416Z,55.90
2018-04-16T23:05:07.451Z,56.10
2018-04-16T23:06:07.487Z,55.81
2018-04-16T23:07:07.525Z,56.67
2018-04-16T23:08:07.564Z,56.00
2018-04-16T23:09:07.601Z,55.90
2018-04-16T23:10:07.636Z,56.00
2018-04-16T23:11:07.672Z,55.90
2018-04-16T23:12:07.710Z,55.81
2018-04-16T23:13:07.745Z,55.81
2018-04-16T23:14:07.784Z,55.81
2018-04-16T23:15:07.821Z,55.90
2018-04-16T23:16:07.856Z,55.90
2018-04-16T23:17:07.894Z,55.90
2018-04-16T23:18:07.934Z,56.00
2018-04-16T23:19:07.969Z,55.81
2018-04-16T23:20:08.006Z,55.90
2018-04-16T23:21:08.042Z,55.71
2018-04-16T23:22:08.078Z,55.90
2018-04-16T23:23:08.117Z,55.81
2018-04-16T23:24:08.155Z,55.81
2018-04-16T23:25:08.189Z,55.81
2018-04-16T23:26:08.229Z,55.90
2018-04-16T23:27:08.266Z,55.81
2018-04-16T23:28:08.301Z,55.81
2018-04-16T23:29:08.337Z,55.81
2018-04-16T23:30:08.374Z,56.00
2018-04-16T23:31:08.412Z,55.90
2018-04-16T23:32:08.450Z,56.20
2018-04-16T23:33:08.486Z,55.81
2018-04-16T23:34:08.522Z,55.90
2018-04-16T23:35:08.559Z,55.81
2018-04-16T23:36:08.605Z,55.81
2018-04-16T23:37:08.642Z,56.00
2018-04-16T23:38:08.671Z,56.00
2018-04-16T23:39:08.707Z,56.10
2018-04-16T23:40:08.743Z,55.90
2018-04-16T23:41:08.783Z,56.10
2018-04-16T23:42:08.817Z,56.00
2018-04-16T23:43:08.858Z,56.00
2018-04-16T23:44:08.893Z,56.20
2018-04-16T23:45:08.929Z,56.20
2018-04-16T23:46:08.965Z,56.29
2018-04-16T23:47:09.009Z,55.90
2018-04-16T23:48:09.041Z,55.71
2018-04-16T23:49:09.077Z,55.81
2018-04-16T23:50:09.116Z,56.00
2018-04-16T23:51:09.151Z,56.10
2018-04-16T23:52:09.188Z,56.16
2018-04-16T23:53:09.225Z,56.20
2018-04-16T23:54:09.262Z,56.20
2018-04-16T23:55:09.304Z,56.00
2018-04-16T23:56:09.336Z,55.52
2018-04-16T23:57:09.372Z,56.20
2018-04-16T23:58:09.411Z,56.20
2018-04-16T23:59:09.448Z,55.98
